sensor_id;sensor_type;location;lat;lon;timestamp;P1;durP1;ratioP1;P2;durP2;ratioP2
48629;SDS011;34426;52.180;4.462;2023-07-20T00:00:48;1.70;;;0.30;;
48629;SDS011;34426;52.180;4.462;2023-07-20T00:03:14;3.10;;;0.32;;
48629;SDS011;34426;52.180;4.462;2023-07-20T00:05:41;1.27;;;0.30;;
48629;SDS011;34426;52.180;4.462;2023-07-20T00:08:06;1.23;;;0.40;;
48629;SDS011;34426;52.180;4.462;2023-07-20T00:10:32;1.58;;;0.47;;
48629;SDS011;34426;52.180;4.462;2023-07-20T00:12:57;2.97;;;0.50;;
48629;SDS011;34426;52.180;4.462;2023-07-20T00:15:23;2.88;;;0.50;;
48629;SDS011;34426;52.180;4.462;2023-07-20T00:17:48;3.72;;;0.85;;
48629;SDS011;34426;52.180;4.462;2023-07-20T00:20:14;3.13;;;0.70;;
48629;SDS011;34426;52.180;4.462;2023-07-20T00:22:41;2.80;;;0.70;;
48629;SDS011;34426;52.180;4.462;2023-07-20T00:25:06;3.28;;;1.35;;
48629;SDS011;34426;52.180;4.462;2023-07-20T00:27:32;2.15;;;1.00;;
48629;SDS011;34426;52.180;4.462;2023-07-20T00:29:58;2.10;;;0.90;;
48629;SDS011;34426;52.180;4.462;2023-07-20T00:32:23;0.55;;;0.50;;
48629;SDS011;34426;52.180;4.462;2023-07-20T00:34:49;2.20;;;0.60;;
48629;SDS011;34426;52.180;4.462;2023-07-20T00:37:14;2.17;;;0.70;;
48629;SDS011;34426;52.180;4.462;2023-07-20T00:39:41;0.70;;;0.45;;
48629;SDS011;34426;52.180;4.462;2023-07-20T00:42:07;2.38;;;0.40;;
48629;SDS011;34426;52.180;4.462;2023-07-20T00:44:32;0.95;;;0.40;;
48629;SDS011;34426;52.180;4.462;2023-07-20T00:46:58;3.33;;;0.40;;
48629;SDS011;34426;52.180;4.462;2023-07-20T00:49:23;0.85;;;0.40;;
48629;SDS011;34426;52.180;4.462;2023-07-20T00:51:49;0.98;;;0.40;;
48629;SDS011;34426;52.180;4.462;2023-07-20T00:54:15;1.13;;;0.30;;
48629;SDS011;34426;52.180;4.462;2023-07-20T00:56:42;1.00;;;0.38;;
48629;SDS011;34426;52.180;4.462;2023-07-20T00:59:08;0.60;;;0.30;;
48629;SDS011;34426;52.180;4.462;2023-07-20T01:01:34;3.03;;;0.50;;
48629;SDS011;34426;52.180;4.462;2023-07-20T01:04:00;2.45;;;0.50;;
48629;SDS011;34426;52.180;4.462;2023-07-20T01:06:27;4.00;;;0.40;;
48629;SDS011;34426;52.180;4.462;2023-07-20T01:09:01;1.67;;;0.57;;
48629;SDS011;34426;52.180;4.462;2023-07-20T01:11:36;4.07;;;0.70;;
48629;SDS011;34426;52.180;4.462;2023-07-20T01:14:08;4.45;;;0.60;;
48629;SDS011;34426;52.180;4.462;2023-07-20T01:16:34;0.80;;;0.40;;
48629;SDS011;34426;52.180;4.462;2023-07-20T01:18:59;2.80;;;0.77;;
48629;SDS011;34426;52.180;4.462;2023-07-20T01:21:26;1.30;;;0.40;;
48629;SDS011;34426;52.180;4.462;2023-07-20T01:24:05;2.28;;;0.50;;
48629;SDS011;34426;52.180;4.462;2023-07-20T01:27:00;3.33;;;0.50;;
48629;SDS011;34426;52.180;4.462;2023-07-20T01:30:02;3.40;;;0.40;;
48629;SDS011;34426;52.180;4.462;2023-07-20T01:32:43;0.52;;;0.32;;
48629;SDS011;34426;52.180;4.462;2023-07-20T01:35:11;1.33;;;0.32;;
48629;SDS011;34426;52.180;4.462;2023-07-20T01:37:39;2.53;;;0.50;;
48629;SDS011;34426;52.180;4.462;2023-07-20T01:40:07;1.23;;;0.38;;
48629;SDS011;34426;52.180;4.462;2023-07-20T01:42:34;2.22;;;0.47;;
48629;SDS011;34426;52.180;4.462;2023-07-20T01:44:59;5.00;;;0.50;;
48629;SDS011;34426;52.180;4.462;2023-07-20T01:47:25;2.92;;;0.57;;
48629;SDS011;34426;52.180;4.462;2023-07-20T01:49:52;0.43;;;0.30;;
48629;SDS011;34426;52.180;4.462;2023-07-20T01:52:17;2.10;;;0.40;;
48629;SDS011;34426;52.180;4.462;2023-07-20T01:54:42;1.55;;;0.55;;
48629;SDS011;34426;52.180;4.462;2023-07-20T01:57:08;3.78;;;0.50;;
48629;SDS011;34426;52.180;4.462;2023-07-20T01:59:33;2.97;;;0.88;;
48629;SDS011;34426;52.180;4.462;2023-07-20T02:01:59;1.20;;;0.40;;
48629;SDS011;34426;52.180;4.462;2023-07-20T02:04:24;5.85;;;0.43;;
48629;SDS011;34426;52.180;4.462;2023-07-20T02:06:51;5.55;;;0.80;;
48629;SDS011;34426;52.180;4.462;2023-07-20T02:09:17;1.48;;;0.43;;
48629;SDS011;34426;52.180;4.462;2023-07-20T02:11:42;1.95;;;0.50;;
48629;SDS011;34426;52.180;4.462;2023-07-20T02:14:08;4.03;;;0.52;;
48629;SDS011;34426;52.180;4.462;2023-07-20T02:16:33;1.83;;;0.50;;
48629;SDS011;34426;52.180;4.462;2023-07-20T02:18:59;1.80;;;0.40;;
48629;SDS011;34426;52.180;4.462;2023-07-20T02:21:24;2.30;;;0.50;;
48629;SDS011;34426;52.180;4.462;2023-07-20T02:23:51;1.65;;;0.40;;
48629;SDS011;34426;52.180;4.462;2023-07-20T02:26:16;0.40;;;0.40;;
48629;SDS011;34426;52.180;4.462;2023-07-20T02:28:42;1.27;;;0.60;;
48629;SDS011;34426;52.180;4.462;2023-07-20T02:31:07;1.80;;;0.80;;
48629;SDS011;34426;52.180;4.462;2023-07-20T02:33:33;1.55;;;0.55;;
48629;SDS011;34426;52.180;4.462;2023-07-20T02:35:58;3.78;;;0.32;;
48629;SDS011;34426;52.180;4.462;2023-07-20T02:38:24;2.20;;;0.70;;
48629;SDS011;34426;52.180;4.462;2023-07-20T02:40:51;1.60;;;0.73;;
48629;SDS011;34426;52.180;4.462;2023-07-20T02:43:16;1.42;;;0.60;;
48629;SDS011;34426;52.180;4.462;2023-07-20T02:45:42;3.28;;;0.80;;
48629;SDS011;34426;52.180;4.462;2023-07-20T02:48:08;1.05;;;0.50;;
48629;SDS011;34426;52.180;4.462;2023-07-20T02:50:33;4.70;;;0.80;;
48629;SDS011;34426;52.180;4.462;2023-07-20T02:52:59;3.15;;;0.93;;
48629;SDS011;34426;52.180;4.462;2023-07-20T02:55:24;1.70;;;0.52;;
48629;SDS011;34426;52.180;4.462;2023-07-20T02:57:51;2.90;;;0.80;;
48629;SDS011;34426;52.180;4.462;2023-07-20T03:00:17;3.63;;;0.75;;
48629;SDS011;34426;52.180;4.462;2023-07-20T03:02:42;2.30;;;0.70;;
48629;SDS011;34426;52.180;4.462;2023-07-20T03:05:08;2.67;;;0.88;;
48629;SDS011;34426;52.180;4.462;2023-07-20T03:07:34;1.65;;;0.80;;
48629;SDS011;34426;52.180;4.462;2023-07-20T03:09:59;3.97;;;1.02;;
48629;SDS011;34426;52.180;4.462;2023-07-20T03:12:25;3.08;;;0.80;;
48629;SDS011;34426;52.180;4.462;2023-07-20T03:14:52;1.45;;;0.63;;
48629;SDS011;34426;52.180;4.462;2023-07-20T03:17:17;6.63;;;0.82;;
48629;SDS011;34426;52.180;4.462;2023-07-20T03:19:43;6.47;;;1.00;;
48629;SDS011;34426;52.180;4.462;2023-07-20T03:22:08;4.05;;;0.98;;
48629;SDS011;34426;52.180;4.462;2023-07-20T03:24:34;1.77;;;0.80;;
48629;SDS011;34426;52.180;4.462;2023-07-20T03:26:59;3.05;;;0.90;;
48629;SDS011;34426;52.180;4.462;2023-07-20T03:29:25;1.88;;;0.80;;
48629;SDS011;34426;52.180;4.462;2023-07-20T03:31:52;1.65;;;0.95;;
48629;SDS011;34426;52.180;4.462;2023-07-20T03:34:17;1.50;;;1.00;;
48629;SDS011;34426;52.180;4.462;2023-07-20T03:36:42;3.40;;;1.05;;
48629;SDS011;34426;52.180;4.462;2023-07-20T03:39:08;4.05;;;1.15;;
48629;SDS011;34426;52.180;4.462;2023-07-20T03:41:33;3.15;;;0.93;;
48629;SDS011;34426;52.180;4.462;2023-07-20T03:43:59;4.13;;;1.10;;
48629;SDS011;34426;52.180;4.462;2023-07-20T03:46:24;4.20;;;1.02;;
48629;SDS011;34426;52.180;4.462;2023-07-20T03:48:51;2.50;;;1.08;;
48629;SDS011;34426;52.180;4.462;2023-07-20T03:51:17;1.35;;;0.93;;
48629;SDS011;34426;52.180;4.462;2023-07-20T03:53:42;4.45;;;1.10;;
48629;SDS011;34426;52.180;4.462;2023-07-20T03:56:07;3.33;;;1.33;;
48629;SDS011;34426;52.180;4.462;2023-07-20T03:58:33;5.60;;;1.20;;
48629;SDS011;34426;52.180;4.462;2023-07-20T04:00:58;2.35;;;1.02;;
48629;SDS011;34426;52.180;4.462;2023-07-20T04:03:24;2.60;;;1.00;;
48629;SDS011;34426;52.180;4.462;2023-07-20T04:05:52;2.35;;;1.30;;
48629;SDS011;34426;52.180;4.462;2023-07-20T04:08:19;6.25;;;1.38;;
48629;SDS011;34426;52.180;4.462;2023-07-20T04:10:44;1.88;;;0.90;;
48629;SDS011;34426;52.180;4.462;2023-07-20T04:13:10;4.30;;;1.40;;
48629;SDS011;34426;52.180;4.462;2023-07-20T04:15:35;3.05;;;1.35;;
48629;SDS011;34426;52.180;4.462;2023-07-20T04:18:01;4.72;;;1.20;;
48629;SDS011;34426;52.180;4.462;2023-07-20T04:20:26;5.78;;;1.30;;
48629;SDS011;34426;52.180;4.462;2023-07-20T04:22:53;1.80;;;1.33;;
48629;SDS011;34426;52.180;4.462;2023-07-20T04:25:19;4.93;;;1.25;;
48629;SDS011;34426;52.180;4.462;2023-07-20T04:27:44;4.32;;;1.20;;
48629;SDS011;34426;52.180;4.462;2023-07-20T04:30:10;2.80;;;1.02;;
48629;SDS011;34426;52.180;4.462;2023-07-20T04:32:36;3.38;;;1.30;;
48629;SDS011;34426;52.180;4.462;2023-07-20T04:35:05;5.22;;;1.63;;
48629;SDS011;34426;52.180;4.462;2023-07-20T04:37:31;3.92;;;1.10;;
48629;SDS011;34426;52.180;4.462;2023-07-20T04:39:58;4.70;;;1.20;;
48629;SDS011;34426;52.180;4.462;2023-07-20T04:42:23;3.17;;;1.00;;
48629;SDS011;34426;52.180;4.462;2023-07-20T04:44:49;6.20;;;1.10;;
48629;SDS011;34426;52.180;4.462;2023-07-20T04:47:14;2.80;;;0.90;;
48629;SDS011;34426;52.180;4.462;2023-07-20T04:49:40;4.93;;;1.17;;
48629;SDS011;34426;52.180;4.462;2023-07-20T04:52:06;4.68;;;1.15;;
48629;SDS011;34426;52.180;4.462;2023-07-20T04:54:31;2.92;;;0.98;;
48629;SDS011;34426;52.180;4.462;2023-07-20T04:56:58;3.97;;;1.05;;
48629;SDS011;34426;52.180;4.462;2023-07-20T04:59:24;2.13;;;1.00;;
48629;SDS011;34426;52.180;4.462;2023-07-20T05:01:49;3.40;;;1.10;;
48629;SDS011;34426;52.180;4.462;2023-07-20T05:04:15;2.67;;;0.50;;
48629;SDS011;34426;52.180;4.462;2023-07-20T05:06:40;1.25;;;0.70;;
48629;SDS011;34426;52.180;4.462;2023-07-20T05:09:06;4.07;;;1.00;;
48629;SDS011;34426;52.180;4.462;2023-07-20T05:11:31;6.20;;;1.02;;
48629;SDS011;34426;52.180;4.462;2023-07-20T05:13:59;2.20;;;0.90;;
48629;SDS011;34426;52.180;4.462;2023-07-20T05:16:25;5.03;;;1.23;;
48629;SDS011;34426;52.180;4.462;2023-07-20T05:18:50;3.63;;;1.08;;
48629;SDS011;34426;52.180;4.462;2023-07-20T05:21:16;8.00;;;1.35;;
48629;SDS011;34426;52.180;4.462;2023-07-20T05:23:41;2.90;;;0.98;;
48629;SDS011;34426;52.180;4.462;2023-07-20T05:26:07;1.63;;;0.80;;
48629;SDS011;34426;52.180;4.462;2023-07-20T05:28:33;3.50;;;0.75;;
48629;SDS011;34426;52.180;4.462;2023-07-20T05:31:01;4.20;;;0.77;;
48629;SDS011;34426;52.180;4.462;2023-07-20T05:33:27;3.63;;;1.02;;
48629;SDS011;34426;52.180;4.462;2023-07-20T05:35:53;2.20;;;1.00;;
48629;SDS011;34426;52.180;4.462;2023-07-20T05:38:18;2.05;;;0.68;;
48629;SDS011;34426;52.180;4.462;2023-07-20T05:40:44;1.63;;;0.77;;
48629;SDS011;34426;52.180;4.462;2023-07-20T05:43:10;3.88;;;1.55;;
48629;SDS011;34426;52.180;4.462;2023-07-20T05:45:36;4.60;;;1.55;;
48629;SDS011;34426;52.180;4.462;2023-07-20T05:48:03;3.97;;;2.03;;
48629;SDS011;34426;52.180;4.462;2023-07-20T05:50:29;5.50;;;1.75;;
48629;SDS011;34426;52.180;4.462;2023-07-20T05:52:54;5.70;;;1.33;;
48629;SDS011;34426;52.180;4.462;2023-07-20T05:55:20;4.18;;;1.17;;
48629;SDS011;34426;52.180;4.462;2023-07-20T05:57:46;6.05;;;1.20;;
48629;SDS011;34426;52.180;4.462;2023-07-20T06:00:11;2.20;;;0.93;;
48629;SDS011;34426;52.180;4.462;2023-07-20T06:02:37;3.20;;;1.00;;
48629;SDS011;34426;52.180;4.462;2023-07-20T06:05:05;1.65;;;0.70;;
48629;SDS011;34426;52.180;4.462;2023-07-20T06:07:31;5.05;;;1.20;;
48629;SDS011;34426;52.180;4.462;2023-07-20T06:09:56;4.93;;;1.02;;
48629;SDS011;34426;52.180;4.462;2023-07-20T06:12:22;5.22;;;1.00;;
48629;SDS011;34426;52.180;4.462;2023-07-20T06:14:47;2.25;;;1.00;;
48629;SDS011;34426;52.180;4.462;2023-07-20T06:17:13;4.07;;;0.80;;
48629;SDS011;34426;52.180;4.462;2023-07-20T06:19:38;5.65;;;1.00;;
48629;SDS011;34426;52.180;4.462;2023-07-20T06:22:05;2.35;;;0.93;;
48629;SDS011;34426;52.180;4.462;2023-07-20T06:24:31;5.72;;;1.30;;
48629;SDS011;34426;52.180;4.462;2023-07-20T06:26:56;1.63;;;0.70;;
48629;SDS011;34426;52.180;4.462;2023-07-20T06:29:22;4.18;;;0.52;;
48629;SDS011;34426;52.180;4.462;2023-07-20T06:31:48;1.70;;;0.60;;
48629;SDS011;34426;52.180;4.462;2023-07-20T06:34:13;1.25;;;0.70;;
48629;SDS011;34426;52.180;4.462;2023-07-20T06:36:39;2.78;;;0.90;;
48629;SDS011;34426;52.180;4.462;2023-07-20T06:39:05;4.40;;;0.75;;
48629;SDS011;34426;52.180;4.462;2023-07-20T06:41:31;1.70;;;0.70;;
48629;SDS011;34426;52.180;4.462;2023-07-20T06:43:56;2.35;;;0.70;;
48629;SDS011;34426;52.180;4.462;2023-07-20T06:46:22;3.05;;;0.75;;
48629;SDS011;34426;52.180;4.462;2023-07-20T06:48:47;5.63;;;0.70;;
48629;SDS011;34426;52.180;4.462;2023-07-20T06:51:13;3.72;;;1.10;;
48629;SDS011;34426;52.180;4.462;2023-07-20T06:53:39;2.22;;;0.70;;
48629;SDS011;34426;52.180;4.462;2023-07-20T06:56:05;3.70;;;0.50;;
48629;SDS011;34426;52.180;4.462;2023-07-20T06:58:31;4.32;;;0.70;;
48629;SDS011;34426;52.180;4.462;2023-07-20T07:00:56;1.58;;;0.80;;
48629;SDS011;34426;52.180;4.462;2023-07-20T07:03:22;2.20;;;0.95;;
48629;SDS011;34426;52.180;4.462;2023-07-20T07:05:47;2.95;;;0.60;;
48629;SDS011;34426;52.180;4.462;2023-07-20T07:08:13;3.53;;;0.70;;
48629;SDS011;34426;52.180;4.462;2023-07-20T07:10:38;4.70;;;0.93;;
48629;SDS011;34426;52.180;4.462;2023-07-20T07:13:05;2.25;;;0.63;;
48629;SDS011;34426;52.180;4.462;2023-07-20T07:15:31;3.15;;;0.60;;
48629;SDS011;34426;52.180;4.462;2023-07-20T07:17:56;2.40;;;0.77;;
48629;SDS011;34426;52.180;4.462;2023-07-20T07:20:22;3.67;;;0.60;;
48629;SDS011;34426;52.180;4.462;2023-07-20T07:22:49;4.22;;;0.60;;
48629;SDS011;34426;52.180;4.462;2023-07-20T07:25:15;3.53;;;0.55;;
48629;SDS011;34426;52.180;4.462;2023-07-20T07:27:41;2.88;;;0.50;;
48629;SDS011;34426;52.180;4.462;2023-07-20T07:30:08;2.92;;;0.57;;
48629;SDS011;34426;52.180;4.462;2023-07-20T07:32:34;2.92;;;0.57;;
48629;SDS011;34426;52.180;4.462;2023-07-20T07:34:59;3.13;;;0.63;;
48629;SDS011;34426;52.180;4.462;2023-07-20T07:37:25;2.95;;;0.60;;
48629;SDS011;34426;52.180;4.462;2023-07-20T07:39:51;2.15;;;0.50;;
48629;SDS011;34426;52.180;4.462;2023-07-20T07:42:16;2.40;;;0.65;;
48629;SDS011;34426;52.180;4.462;2023-07-20T07:44:42;3.45;;;0.63;;
48629;SDS011;34426;52.180;4.462;2023-07-20T07:47:08;4.10;;;0.70;;
48629;SDS011;34426;52.180;4.462;2023-07-20T07:49:34;4.43;;;0.77;;
48629;SDS011;34426;52.180;4.462;2023-07-20T07:51:59;5.18;;;0.80;;
48629;SDS011;34426;52.180;4.462;2023-07-20T07:54:25;2.67;;;0.43;;
48629;SDS011;34426;52.180;4.462;2023-07-20T07:56:50;10.02;;;1.60;;
48629;SDS011;34426;52.180;4.462;2023-07-20T07:59:16;3.80;;;0.65;;
48629;SDS011;34426;52.180;4.462;2023-07-20T08:01:41;4.22;;;0.60;;
48629;SDS011;34426;52.180;4.462;2023-07-20T08:04:08;2.13;;;0.70;;
48629;SDS011;34426;52.180;4.462;2023-07-20T08:06:34;7.47;;;0.55;;
48629;SDS011;34426;52.180;4.462;2023-07-20T08:08:59;2.72;;;0.40;;
48629;SDS011;34426;52.180;4.462;2023-07-20T08:11:25;1.95;;;0.70;;
48629;SDS011;34426;52.180;4.462;2023-07-20T08:13:50;3.15;;;0.55;;
48629;SDS011;34426;52.180;4.462;2023-07-20T08:16:16;0.90;;;0.60;;
48629;SDS011;34426;52.180;4.462;2023-07-20T08:18:43;1.02;;;0.30;;
48629;SDS011;34426;52.180;4.462;2023-07-20T08:21:10;3.25;;;0.50;;
48629;SDS011;34426;52.180;4.462;2023-07-20T08:23:36;4.95;;;0.30;;
48629;SDS011;34426;52.180;4.462;2023-07-20T08:26:01;1.60;;;0.50;;
48629;SDS011;34426;52.180;4.462;2023-07-20T08:28:27;2.10;;;0.50;;
48629;SDS011;34426;52.180;4.462;2023-07-20T08:30:52;1.25;;;0.32;;
48629;SDS011;34426;52.180;4.462;2023-07-20T08:33:18;2.30;;;0.50;;
48629;SDS011;34426;52.180;4.462;2023-07-20T08:35:43;2.50;;;0.40;;
48629;SDS011;34426;52.180;4.462;2023-07-20T08:38:11;2.03;;;0.35;;
48629;SDS011;34426;52.180;4.462;2023-07-20T08:40:39;1.83;;;0.40;;
48629;SDS011;34426;52.180;4.462;2023-07-20T08:43:06;0.60;;;0.40;;
48629;SDS011;34426;52.180;4.462;2023-07-20T08:45:32;5.50;;;0.43;;
48629;SDS011;34426;52.180;4.462;2023-07-20T08:47:59;4.43;;;0.70;;
48629;SDS011;34426;52.180;4.462;2023-07-20T08:50:25;1.80;;;0.50;;
48629;SDS011;34426;52.180;4.462;2023-07-20T08:52:53;3.95;;;0.70;;
48629;SDS011;34426;52.180;4.462;2023-07-20T08:55:22;0.95;;;0.30;;
48629;SDS011;34426;52.180;4.462;2023-07-20T08:57:49;1.65;;;0.40;;
48629;SDS011;34426;52.180;4.462;2023-07-20T09:00:18;1.42;;;0.45;;
48629;SDS011;34426;52.180;4.462;2023-07-20T09:02:45;1.13;;;0.50;;
48629;SDS011;34426;52.180;4.462;2023-07-20T09:05:14;0.40;;;0.40;;
48629;SDS011;34426;52.180;4.462;2023-07-20T09:07:39;3.85;;;0.50;;
48629;SDS011;34426;52.180;4.462;2023-07-20T09:10:05;3.30;;;0.40;;
48629;SDS011;34426;52.180;4.462;2023-07-20T09:12:33;1.65;;;0.40;;
48629;SDS011;34426;52.180;4.462;2023-07-20T09:15:00;1.48;;;0.60;;
48629;SDS011;34426;52.180;4.462;2023-07-20T09:17:26;4.45;;;0.57;;
48629;SDS011;34426;52.180;4.462;2023-07-20T09:19:51;3.33;;;0.60;;
48629;SDS011;34426;52.180;4.462;2023-07-20T09:22:17;6.03;;;0.68;;
48629;SDS011;34426;52.180;4.462;2023-07-20T09:24:42;1.33;;;0.40;;
48629;SDS011;34426;52.180;4.462;2023-07-20T09:27:08;1.17;;;0.40;;
48629;SDS011;34426;52.180;4.462;2023-07-20T09:29:35;1.27;;;0.40;;
48629;SDS011;34426;52.180;4.462;2023-07-20T09:32:12;1.30;;;0.43;;
48629;SDS011;34426;52.180;4.462;2023-07-20T09:34:42;0.28;;;0.25;;
48629;SDS011;34426;52.180;4.462;2023-07-20T09:37:08;4.97;;;0.50;;
48629;SDS011;34426;52.180;4.462;2023-07-20T09:39:41;1.88;;;0.32;;
48629;SDS011;34426;52.180;4.462;2023-07-20T09:42:07;4.75;;;0.90;;
48629;SDS011;34426;52.180;4.462;2023-07-20T09:44:33;4.75;;;0.52;;
48629;SDS011;34426;52.180;4.462;2023-07-20T09:47:02;1.45;;;0.50;;
48629;SDS011;34426;52.180;4.462;2023-07-20T09:49:28;3.35;;;0.80;;
48629;SDS011;34426;52.180;4.462;2023-07-20T09:51:54;1.58;;;0.52;;
48629;SDS011;34426;52.180;4.462;2023-07-20T09:54:22;0.82;;;0.40;;
48629;SDS011;34426;52.180;4.462;2023-07-20T09:56:49;2.40;;;0.50;;
48629;SDS011;34426;52.180;4.462;2023-07-20T09:59:16;4.82;;;0.47;;
48629;SDS011;34426;52.180;4.462;2023-07-20T10:01:43;3.20;;;0.40;;
48629;SDS011;34426;52.180;4.462;2023-07-20T10:04:11;3.25;;;0.50;;
48629;SDS011;34426;52.180;4.462;2023-07-20T10:06:39;3.13;;;0.40;;
48629;SDS011;34426;52.180;4.462;2023-07-20T10:09:07;1.70;;;0.40;;
48629;SDS011;34426;52.180;4.462;2023-07-20T10:11:37;2.15;;;0.55;;
48629;SDS011;34426;52.180;4.462;2023-07-20T10:14:08;3.27;;;0.60;;
48629;SDS011;34426;52.180;4.462;2023-07-20T10:16:38;3.75;;;0.98;;
48629;SDS011;34426;52.180;4.462;2023-07-20T10:19:07;6.10;;;1.02;;
48629;SDS011;34426;52.180;4.462;2023-07-20T10:21:37;2.33;;;0.30;;
48629;SDS011;34426;52.180;4.462;2023-07-20T10:24:07;1.23;;;0.30;;
48629;SDS011;34426;52.180;4.462;2023-07-20T10:26:33;1.75;;;0.40;;
48629;SDS011;34426;52.180;4.462;2023-07-20T10:28:59;1.52;;;0.52;;
48629;SDS011;34426;52.180;4.462;2023-07-20T10:31:25;1.77;;;0.45;;
48629;SDS011;34426;52.180;4.462;2023-07-20T10:33:51;2.22;;;0.50;;
48629;SDS011;34426;52.180;4.462;2023-07-20T10:36:21;0.45;;;0.30;;
48629;SDS011;34426;52.180;4.462;2023-07-20T10:41:18;7.53;;;0.65;;
48629;SDS011;34426;52.180;4.462;2023-07-20T10:43:45;3.30;;;0.60;;
48629;SDS011;34426;52.180;4.462;2023-07-20T10:46:11;2.53;;;0.77;;
48629;SDS011;34426;52.180;4.462;2023-07-20T10:51:26;0.70;;;0.32;;
48629;SDS011;34426;52.180;4.462;2023-07-20T10:53:51;0.60;;;0.40;;
48629;SDS011;34426;52.180;4.462;2023-07-20T10:56:19;0.95;;;0.40;;
48629;SDS011;34426;52.180;4.462;2023-07-20T10:58:45;0.90;;;0.40;;
48629;SDS011;34426;52.180;4.462;2023-07-20T11:01:12;0.75;;;0.30;;
48629;SDS011;34426;52.180;4.462;2023-07-20T11:03:39;0.57;;;0.20;;
48629;SDS011;34426;52.180;4.462;2023-07-20T11:09:08;1.30;;;0.40;;
48629;SDS011;34426;52.180;4.462;2023-07-20T11:11:35;3.72;;;0.57;;
48629;SDS011;34426;52.180;4.462;2023-07-20T11:14:02;0.63;;;0.40;;
48629;SDS011;34426;52.180;4.462;2023-07-20T11:16:36;1.55;;;0.40;;
48629;SDS011;34426;52.180;4.462;2023-07-20T11:19:03;3.40;;;0.93;;
48629;SDS011;34426;52.180;4.462;2023-07-20T11:21:29;0.30;;;0.30;;
48629;SDS011;34426;52.180;4.462;2023-07-20T11:24:02;2.50;;;0.40;;
48629;SDS011;34426;52.180;4.462;2023-07-20T11:26:28;1.17;;;0.30;;
48629;SDS011;34426;52.180;4.462;2023-07-20T11:28:53;2.40;;;0.30;;
48629;SDS011;34426;52.180;4.462;2023-07-20T11:31:19;2.10;;;0.43;;
48629;SDS011;34426;52.180;4.462;2023-07-20T11:33:45;2.22;;;0.40;;
48629;SDS011;34426;52.180;4.462;2023-07-20T11:36:10;1.52;;;0.30;;
48629;SDS011;34426;52.180;4.462;2023-07-20T11:38:36;0.95;;;0.45;;
48629;SDS011;34426;52.180;4.462;2023-07-20T11:41:04;1.35;;;0.40;;
48629;SDS011;34426;52.180;4.462;2023-07-20T11:43:30;1.10;;;0.30;;
48629;SDS011;34426;52.180;4.462;2023-07-20T11:45:55;0.68;;;0.30;;
48629;SDS011;34426;52.180;4.462;2023-07-20T11:48:21;1.05;;;0.30;;
48629;SDS011;34426;52.180;4.462;2023-07-20T11:50:47;1.70;;;0.43;;
48629;SDS011;34426;52.180;4.462;2023-07-20T11:53:12;2.70;;;0.40;;
48629;SDS011;34426;52.180;4.462;2023-07-20T11:55:39;2.20;;;0.30;;
48629;SDS011;34426;52.180;4.462;2023-07-20T11:58:08;2.20;;;0.40;;
48629;SDS011;34426;52.180;4.462;2023-07-20T12:00:34;2.50;;;0.30;;
48629;SDS011;34426;52.180;4.462;2023-07-20T12:03:04;0.82;;;0.20;;
48629;SDS011;34426;52.180;4.462;2023-07-20T12:05:30;1.27;;;0.30;;
48629;SDS011;34426;52.180;4.462;2023-07-20T12:07:56;2.58;;;0.30;;
48629;SDS011;34426;52.180;4.462;2023-07-20T12:10:25;2.10;;;0.25;;
48629;SDS011;34426;52.180;4.462;2023-07-20T12:12:51;1.13;;;0.20;;
48629;SDS011;34426;52.180;4.462;2023-07-20T12:15:21;3.47;;;0.45;;
48629;SDS011;34426;52.180;4.462;2023-07-20T12:17:49;1.40;;;0.32;;
48629;SDS011;34426;52.180;4.462;2023-07-20T12:20:24;2.10;;;0.20;;
48629;SDS011;34426;52.180;4.462;2023-07-20T12:22:51;1.10;;;0.40;;
48629;SDS011;34426;52.180;4.462;2023-07-20T12:25:16;3.35;;;0.85;;
48629;SDS011;34426;52.180;4.462;2023-07-20T12:27:42;1.60;;;0.57;;
48629;SDS011;34426;52.180;4.462;2023-07-20T12:30:09;2.63;;;0.40;;
48629;SDS011;34426;52.180;4.462;2023-07-20T12:32:36;2.80;;;0.65;;
48629;SDS011;34426;52.180;4.462;2023-07-20T12:35:02;3.47;;;0.47;;
48629;SDS011;34426;52.180;4.462;2023-07-20T12:37:27;3.45;;;0.40;;
48629;SDS011;34426;52.180;4.462;2023-07-20T12:39:53;0.68;;;0.50;;
48629;SDS011;34426;52.180;4.462;2023-07-20T12:42:19;0.40;;;0.40;;
48629;SDS011;34426;52.180;4.462;2023-07-20T12:44:44;0.75;;;0.30;;
48629;SDS011;34426;52.180;4.462;2023-07-20T12:47:10;2.42;;;0.50;;
48629;SDS011;34426;52.180;4.462;2023-07-20T12:49:37;3.58;;;0.40;;
48629;SDS011;34426;52.180;4.462;2023-07-20T12:52:02;0.77;;;0.30;;
48629;SDS011;34426;52.180;4.462;2023-07-20T12:54:28;1.00;;;0.30;;
48629;SDS011;34426;52.180;4.462;2023-07-20T12:56:53;0.85;;;0.30;;
48629;SDS011;34426;52.180;4.462;2023-07-20T12:59:19;0.70;;;0.32;;
48629;SDS011;34426;52.180;4.462;2023-07-20T13:01:44;0.50;;;0.20;;
48629;SDS011;34426;52.180;4.462;2023-07-20T13:04:10;1.30;;;0.40;;
48629;SDS011;34426;52.180;4.462;2023-07-20T13:06:37;4.72;;;0.47;;
48629;SDS011;34426;52.180;4.462;2023-07-20T13:09:02;0.85;;;0.30;;
48629;SDS011;34426;52.180;4.462;2023-07-20T13:11:28;1.90;;;0.40;;
48629;SDS011;34426;52.180;4.462;2023-07-20T13:13:53;1.55;;;0.35;;
48629;SDS011;34426;52.180;4.462;2023-07-20T13:16:19;1.23;;;0.30;;
48629;SDS011;34426;52.180;4.462;2023-07-20T13:18:44;10.90;;;0.88;;
48629;SDS011;34426;52.180;4.462;2023-07-20T13:21:10;2.95;;;0.35;;
48629;SDS011;34426;52.180;4.462;2023-07-20T13:23:36;0.98;;;0.30;;
48629;SDS011;34426;52.180;4.462;2023-07-20T13:26:02;3.38;;;0.30;;
48629;SDS011;34426;52.180;4.462;2023-07-20T13:28:28;1.73;;;0.40;;
48629;SDS011;34426;52.180;4.462;2023-07-20T13:30:53;4.88;;;0.40;;
48629;SDS011;34426;52.180;4.462;2023-07-20T13:33:19;1.55;;;0.40;;
48629;SDS011;34426;52.180;4.462;2023-07-20T13:35:45;0.68;;;0.30;;
48629;SDS011;34426;52.180;4.462;2023-07-20T13:38:10;2.88;;;0.63;;
48629;SDS011;34426;52.180;4.462;2023-07-20T13:40:37;0.88;;;0.30;;
48629;SDS011;34426;52.180;4.462;2023-07-20T13:43:03;1.17;;;0.15;;
48629;SDS011;34426;52.180;4.462;2023-07-20T13:45:28;0.55;;;0.30;;
48629;SDS011;34426;52.180;4.462;2023-07-20T13:47:53;2.08;;;0.32;;
48629;SDS011;34426;52.180;4.462;2023-07-20T13:50:19;0.52;;;0.40;;
48629;SDS011;34426;52.180;4.462;2023-07-20T13:52:44;2.58;;;0.55;;
48629;SDS011;34426;52.180;4.462;2023-07-20T13:55:10;0.68;;;0.30;;
48629;SDS011;34426;52.180;4.462;2023-07-20T13:57:37;1.08;;;0.25;;
48629;SDS011;34426;52.180;4.462;2023-07-20T14:00:02;1.20;;;0.45;;
48629;SDS011;34426;52.180;4.462;2023-07-20T14:02:28;0.98;;;0.40;;
48629;SDS011;34426;52.180;4.462;2023-07-20T14:04:54;4.80;;;0.45;;
48629;SDS011;34426;52.180;4.462;2023-07-20T14:07:19;1.30;;;0.30;;
48629;SDS011;34426;52.180;4.462;2023-07-20T14:09:45;2.47;;;0.50;;
48629;SDS011;34426;52.180;4.462;2023-07-20T14:12:10;3.40;;;0.40;;
48629;SDS011;34426;52.180;4.462;2023-07-20T14:14:37;1.40;;;0.40;;
48629;SDS011;34426;52.180;4.462;2023-07-20T14:17:03;5.32;;;0.40;;
48629;SDS011;34426;52.180;4.462;2023-07-20T14:19:28;1.33;;;0.60;;
48629;SDS011;34426;52.180;4.462;2023-07-20T14:21:54;1.73;;;0.52;;
48629;SDS011;34426;52.180;4.462;2023-07-20T14:24:20;1.23;;;0.43;;
48629;SDS011;34426;52.180;4.462;2023-07-20T14:26:45;1.63;;;0.47;;
48629;SDS011;34426;52.180;4.462;2023-07-20T14:29:11;1.60;;;0.40;;
48629;SDS011;34426;52.180;4.462;2023-07-20T14:31:37;0.47;;;0.30;;
48629;SDS011;34426;52.180;4.462;2023-07-20T14:34:03;1.83;;;0.40;;
48629;SDS011;34426;52.180;4.462;2023-07-20T14:36:28;1.42;;;0.45;;
48629;SDS011;34426;52.180;4.462;2023-07-20T14:38:54;0.80;;;0.40;;
48629;SDS011;34426;52.180;4.462;2023-07-20T14:41:19;1.52;;;0.40;;
48629;SDS011;34426;52.180;4.462;2023-07-20T14:43:45;2.30;;;0.50;;
48629;SDS011;34426;52.180;4.462;2023-07-20T14:46:10;1.67;;;0.43;;
48629;SDS011;34426;52.180;4.462;2023-07-20T14:48:37;1.83;;;0.47;;
48629;SDS011;34426;52.180;4.462;2023-07-20T14:51:03;3.10;;;0.30;;